Time;durP1;ratioP1;P1;durP2;ratioP2;P2;SDS_P1;SDS_P2;PMS_P1;PMS_P2;Temp;Humidity;BMP_temperature;BMP_pressure;BME280_temperature;BME280_humidity;BME280_pressure;Samples;Min_cycle;Max_cycle;Signal;HPM_P1;HPM_P2
2023/09/11 00:00:59;;;;;;;28.13;19.08;;;20.30;99.90;;;;;;5044946;28;20381;-72
2023/09/11 00:03:26;;;;;;;31.80;18.42;;;20.30;99.90;;;;;;5048605;28;20624;-72
2023/09/11 00:05:51;;;;;;;27.60;18.05;;;20.20;99.90;;;;;;5044372;28;20490;-72
2023/09/11 00:08:17;;;;;;;36.08;19.00;;;20.20;99.90;;;;;;5006000;28;20142;-72
2023/09/11 00:10:43;;;;;;;26.15;18.25;;;20.20;99.90;;;;;;5047803;28;20041;-72
2023/09/11 00:13:09;;;;;;;24.83;17.45;;;20.20;99.90;;;;;;5054534;28;20036;-72
2023/09/11 00:15:35;;;;;;;24.08;18.45;;;20.20;99.90;;;;;;5045000;28;20037;-72
2023/09/11 00:18:01;;;;;;;31.58;18.58;;;20.10;99.90;;;;;;5053016;28;20425;-72
2023/09/11 00:20:27;;;;;;;28.63;18.35;;;20.10;99.90;;;;;;5033069;28;20083;-72
2023/09/11 00:22:52;;;;;;;21.65;17.50;;;20.10;99.90;;;;;;5037038;28;20072;-72
2023/09/11 00:25:18;;;;;;;23.33;17.50;;;20.10;99.90;;;;;;5045442;28;20044;-72
2023/09/11 00:27:44;;;;;;;21.48;17.75;;;20.00;99.90;;;;;;5057242;28;20053;-72
2023/09/11 00:30:10;;;;;;;27.60;18.23;;;20.10;99.90;;;;;;5053725;28;20068;-72
2023/09/11 00:32:36;;;;;;;27.88;18.55;;;20.10;99.90;;;;;;5057704;28;20486;-72
2023/09/11 00:35:02;;;;;;;27.05;18.10;;;20.10;99.90;;;;;;5068546;28;20059;-72
2023/09/11 00:37:27;;;;;;;26.85;18.08;;;20.10;99.90;;;;;;5040376;28;22065;-72
2023/09/11 00:39:53;;;;;;;27.25;18.02;;;20.00;99.90;;;;;;5051559;28;20067;-72
2023/09/11 00:42:19;;;;;;;25.85;18.13;;;20.00;99.90;;;;;;5053174;28;20045;-72
2023/09/11 00:44:44;;;;;;;30.35;17.75;;;20.00;99.90;;;;;;5057578;28;20053;-72
2023/09/11 00:47:11;;;;;;;26.27;18.05;;;19.90;99.90;;;;;;5059943;28;20134;-72
2023/09/11 00:49:37;;;;;;;35.90;18.73;;;19.90;99.90;;;;;;5057103;28;20037;-72
2023/09/11 00:52:03;;;;;;;28.48;19.42;;;19.90;99.90;;;;;;5053194;28;20041;-72
2023/09/11 00:54:29;;;;;;;30.13;18.33;;;20.00;99.90;;;;;;5056321;28;20444;-72
2023/09/11 00:56:55;;;;;;;29.55;18.65;;;19.90;99.90;;;;;;5052349;28;20040;-72
2023/09/11 00:59:21;;;;;;;32.60;19.48;;;19.90;99.90;;;;;;5060134;28;20051;-65
2023/09/11 01:01:48;;;;;;;24.17;19.33;;;19.80;99.90;;;;;;5065246;28;20506;-65
2023/09/11 01:04:18;;;;;;;28.85;18.77;;;19.80;99.90;;;;;;5085807;28;20041;-65
2023/09/11 01:06:46;;;;;;;24.88;18.38;;;19.80;99.90;;;;;;5051780;28;20056;-65
2023/09/11 01:09:12;;;;;;;23.52;18.13;;;19.80;99.90;;;;;;5041590;28;20083;-65
2023/09/11 01:11:38;;;;;;;26.67;18.40;;;19.80;99.90;;;;;;5048218;28;20041;-72
2023/09/11 01:14:04;;;;;;;28.63;18.90;;;19.70;99.90;;;;;;5059171;28;20159;-72
2023/09/11 01:16:29;;;;;;;31.83;18.42;;;19.70;99.90;;;;;;5048388;28;20097;-72
2023/09/11 01:19:32;;;;;;;28.73;19.92;;;19.70;99.90;;;;;;5051107;28;20067;-72
2023/09/11 01:22:03;;;;;;;29.30;18.50;;;19.60;99.90;;;;;;5049231;28;20044;-72
2023/09/11 01:24:48;;;;;;;30.00;19.40;;;19.60;99.90;;;;;;5052499;28;20048;-72
2023/09/11 01:27:31;;;;;;;29.52;18.35;;;19.60;99.90;;;;;;5054146;28;20049;-72
2023/09/11 01:29:58;;;;;;;28.13;20.67;;;19.50;99.90;;;;;;5053998;28;20048;-72
2023/09/11 01:32:25;;;;;;;25.70;19.98;;;19.50;99.90;;;;;;5058641;28;20044;-72
2023/09/11 01:34:51;;;;;;;29.05;18.90;;;19.50;99.90;;;;;;5061557;28;20059;-72
2023/09/11 01:37:17;;;;;;;30.00;18.55;;;19.50;99.90;;;;;;5055166;28;20584;-72
2023/09/11 01:39:43;;;;;;;29.48;19.42;;;19.50;99.90;;;;;;5059375;28;20493;-72
2023/09/11 01:42:17;;;;;;;26.45;19.77;;;19.50;99.90;;;;;;5058451;28;20058;-72
2023/09/11 01:44:44;;;;;;;28.83;19.35;;;19.50;99.90;;;;;;5059195;28;20068;-72
2023/09/11 01:47:13;;;;;;;27.92;20.02;;;19.50;99.90;;;;;;5061471;28;21218;-72
2023/09/11 01:49:40;;;;;;;31.10;20.02;;;19.50;99.90;;;;;;5062988;28;20485;-72
2023/09/11 01:52:10;;;;;;;28.77;19.27;;;19.40;99.90;;;;;;5060824;28;20044;-72
2023/09/11 01:54:37;;;;;;;33.30;20.90;;;19.40;99.90;;;;;;5058551;28;20420;-72
2023/09/11 01:57:07;;;;;;;25.27;20.45;;;19.40;99.90;;;;;;5063141;28;20028;-72
2023/09/11 01:59:32;;;;;;;28.30;20.42;;;19.40;99.90;;;;;;5053358;28;20163;-72
2023/09/11 02:01:58;;;;;;;32.58;20.58;;;19.30;99.90;;;;;;5063759;28;20438;-72
2023/09/11 02:04:24;;;;;;;33.20;20.13;;;19.30;99.90;;;;;;5059928;28;20048;-72
2023/09/11 02:06:50;;;;;;;31.58;19.58;;;19.30;99.90;;;;;;5062646;28;20048;-72
2023/09/11 02:09:16;;;;;;;28.42;20.60;;;19.30;99.90;;;;;;5054298;28;20038;-72
2023/09/11 02:11:42;;;;;;;29.38;20.50;;;19.30;99.90;;;;;;5058790;28;20028;-72
2023/09/11 02:14:08;;;;;;;28.88;20.35;;;19.30;99.90;;;;;;5063956;28;20550;-72
2023/09/11 02:16:33;;;;;;;33.60;20.25;;;19.30;99.90;;;;;;5062747;28;20520;-72
2023/09/11 02:18:59;;;;;;;26.40;21.00;;;19.30;99.90;;;;;;5039467;28;20178;-73
2023/09/11 02:21:25;;;;;;;33.20;21.23;;;19.20;99.90;;;;;;5057241;28;20090;-72
2023/09/11 02:23:50;;;;;;;31.98;20.95;;;19.20;99.90;;;;;;5052849;28;20041;-72
2023/09/11 02:26:16;;;;;;;31.67;21.08;;;19.20;99.90;;;;;;5051789;28;20060;-72
2023/09/11 02:28:42;;;;;;;37.05;21.45;;;19.20;99.90;;;;;;5058740;28;20131;-72
2023/09/11 02:31:08;;;;;;;32.33;20.67;;;19.20;99.90;;;;;;5057173;28;20037;-72
2023/09/11 02:33:33;;;;;;;31.02;20.35;;;19.20;99.90;;;;;;5063779;28;20043;-71
2023/09/11 02:36:02;;;;;;;29.30;19.67;;;19.10;99.90;;;;;;5059959;28;20482;-72
2023/09/11 02:38:28;;;;;;;29.40;20.25;;;19.20;99.90;;;;;;5060499;28;20037;-72
2023/09/11 02:40:54;;;;;;;41.97;20.30;;;19.10;99.90;;;;;;5062196;28;20466;-72
2023/09/11 02:43:20;;;;;;;29.88;19.92;;;19.10;99.90;;;;;;5059602;28;20513;-72
2023/09/11 02:45:45;;;;;;;27.42;19.30;;;19.10;99.90;;;;;;5060549;28;20032;-72
2023/09/11 02:48:12;;;;;;;27.63;19.58;;;19.00;99.90;;;;;;5057451;28;20043;-72
2023/09/11 02:50:38;;;;;;;32.85;19.83;;;19.00;99.90;;;;;;5065466;28;20032;-72
2023/09/11 02:53:13;;;;;;;30.88;18.52;;;19.00;99.90;;;;;;5052737;28;20206;-72
2023/09/11 02:55:42;;;;;;;30.77;19.05;;;19.00;99.90;;;;;;5055604;28;20041;-72
2023/09/11 02:58:07;;;;;;;26.58;19.70;;;19.00;99.90;;;;;;5057568;28;20032;-72
2023/09/11 03:00:34;;;;;;;26.38;18.10;;;19.00;99.90;;;;;;5064714;28;20394;-72
2023/09/11 03:03:01;;;;;;;33.83;20.25;;;19.00;99.90;;;;;;5057043;28;20037;-73
2023/09/11 03:05:27;;;;;;;31.63;19.77;;;19.00;99.90;;;;;;5041203;28;20517;-73
2023/09/11 03:07:53;;;;;;;28.75;18.90;;;19.00;99.90;;;;;;5055792;28;20038;-71
2023/09/11 03:10:19;;;;;;;29.63;19.98;;;18.90;99.90;;;;;;5054087;28;20032;-72
2023/09/11 03:12:44;;;;;;;30.30;18.67;;;18.90;99.90;;;;;;5055175;28;20036;-72
2023/09/11 03:15:10;;;;;;;27.75;18.95;;;18.90;99.90;;;;;;5060737;28;20086;-71
2023/09/11 03:17:36;;;;;;;27.40;19.33;;;18.90;99.90;;;;;;5058136;28;20126;-71
2023/09/11 03:20:02;;;;;;;28.80;20.35;;;18.90;99.90;;;;;;5060881;28;20044;-71
2023/09/11 03:22:29;;;;;;;26.02;18.05;;;18.90;99.90;;;;;;5059161;28;20045;-71
2023/09/11 03:24:54;;;;;;;30.45;20.63;;;18.90;99.90;;;;;;5061313;28;20043;-72
2023/09/11 03:27:20;;;;;;;30.75;20.38;;;18.90;99.90;;;;;;5053726;28;20057;-71
2023/09/11 03:29:46;;;;;;;29.73;19.85;;;18.90;99.90;;;;;;5082790;28;20418;-72
2023/09/11 03:32:11;;;;;;;30.77;19.45;;;18.80;99.90;;;;;;5060367;28;20041;-71
2023/09/11 03:34:37;;;;;;;25.17;19.90;;;18.80;99.90;;;;;;5064995;28;20111;-71
2023/09/11 03:37:03;;;;;;;31.92;19.40;;;18.80;99.90;;;;;;5041576;28;20056;-71
2023/09/11 03:39:29;;;;;;;30.75;18.80;;;18.80;99.90;;;;;;5034284;28;20032;-71
2023/09/11 03:41:54;;;;;;;30.23;20.67;;;18.80;99.90;;;;;;5051399;28;20520;-71
2023/09/11 03:44:20;;;;;;;29.20;20.38;;;18.80;99.90;;;;;;5057656;28;20036;-71
2023/09/11 03:46:46;;;;;;;32.15;20.67;;;18.80;99.90;;;;;;5060090;28;20048;-71
2023/09/11 03:49:11;;;;;;;29.27;20.58;;;18.70;99.90;;;;;;5056768;28;20177;-71
2023/09/11 03:51:37;;;;;;;29.38;19.42;;;18.70;99.90;;;;;;5058640;28;20037;-71
2023/09/11 03:54:10;;;;;;;25.80;20.98;;;18.70;99.90;;;;;;5059706;28;20044;-71
2023/09/11 03:56:35;;;;;;;29.30;20.52;;;18.70;99.90;;;;;;5060398;28;20417;-71
2023/09/11 03:59:02;;;;;;;29.58;19.48;;;18.70;99.90;;;;;;5059177;28;20029;-71
2023/09/11 04:01:27;;;;;;;26.92;20.65;;;18.70;99.90;;;;;;5059395;28;20575;-71
2023/09/11 04:03:53;;;;;;;30.27;20.85;;;18.60;99.90;;;;;;5055503;28;20088;-71
2023/09/11 04:06:19;;;;;;;28.27;20.35;;;18.60;99.90;;;;;;5053825;28;20044;-71
2023/09/11 04:08:45;;;;;;;32.35;21.92;;;18.60;99.90;;;;;;5059294;28;20117;-71
2023/09/11 04:11:11;;;;;;;29.63;21.45;;;18.60;99.90;;;;;;5061713;28;20064;-71
2023/09/11 04:13:36;;;;;;;29.98;21.77;;;18.60;99.90;;;;;;5084598;28;20548;-72
2023/09/11 04:16:02;;;;;;;32.40;21.58;;;18.60;99.90;;;;;;5066314;28;20047;-71
2023/09/11 04:18:28;;;;;;;39.05;25.08;;;18.60;99.90;;;;;;5061473;28;20476;-71
2023/09/11 04:21:03;;;;;;;41.45;28.80;;;18.60;99.90;;;;;;5056872;28;20037;-71
2023/09/11 04:23:29;;;;;;;38.83;27.70;;;18.50;99.90;;;;;;5060270;28;20369;-71
2023/09/11 04:25:56;;;;;;;33.40;25.10;;;18.50;99.90;;;;;;5059591;28;20038;-71
2023/09/11 04:28:21;;;;;;;38.20;27.98;;;18.50;99.90;;;;;;5055346;28;20033;-71
2023/09/11 04:30:47;;;;;;;30.23;24.80;;;18.40;99.90;;;;;;5063465;28;20576;-71
2023/09/11 04:33:13;;;;;;;35.55;25.42;;;18.40;99.90;;;;;;5059681;28;20504;-71
2023/09/11 04:35:39;;;;;;;38.15;24.88;;;18.40;99.90;;;;;;5062300;28;20132;-71
2023/09/11 04:38:04;;;;;;;37.63;25.08;;;18.40;99.90;;;;;;5056019;28;20045;-71
2023/09/11 04:40:30;;;;;;;37.72;25.27;;;18.30;99.90;;;;;;5065934;28;20048;-71
2023/09/11 04:42:56;;;;;;;36.50;26.17;;;18.30;99.90;;;;;;5065138;28;20048;-71
2023/09/11 04:45:21;;;;;;;31.73;25.05;;;18.20;99.90;;;;;;5063470;28;20047;-71
2023/09/11 04:47:47;;;;;;;38.85;25.13;;;18.20;99.90;;;;;;5042865;28;20045;-72
2023/09/11 04:50:13;;;;;;;31.08;23.70;;;18.20;99.90;;;;;;5043931;28;20039;-71
2023/09/11 04:52:39;;;;;;;34.75;24.85;;;18.20;99.90;;;;;;5055916;28;20123;-71
2023/09/11 04:55:05;;;;;;;37.22;25.05;;;18.20;99.90;;;;;;5062548;28;20064;-71
2023/09/11 04:57:30;;;;;;;35.53;24.33;;;18.20;99.90;;;;;;5063744;28;20600;-71
2023/09/11 04:59:56;;;;;;;41.17;25.85;;;18.20;99.90;;;;;;5059254;28;20048;-71
2023/09/11 05:02:22;;;;;;;33.58;25.38;;;18.20;99.90;;;;;;5062364;28;20037;-71
2023/09/11 05:04:49;;;;;;;40.25;26.88;;;18.20;99.90;;;;;;5062995;28;20037;-71
2023/09/11 05:07:14;;;;;;;40.22;25.58;;;18.20;99.90;;;;;;5055295;28;20048;-72
2023/09/11 05:09:40;;;;;;;33.20;24.40;;;18.20;99.90;;;;;;5064297;28;20678;-71
2023/09/11 05:12:06;;;;;;;34.08;25.58;;;18.20;99.90;;;;;;5057625;28;20062;-71
2023/09/11 05:14:32;;;;;;;33.05;25.05;;;18.20;99.90;;;;;;5054275;28;20084;-71
2023/09/11 05:16:57;;;;;;;37.50;26.20;;;18.20;99.90;;;;;;5062147;28;20513;-71
2023/09/11 05:19:23;;;;;;;30.98;23.77;;;18.10;99.90;;;;;;5059967;28;20049;-71
2023/09/11 05:21:49;;;;;;;35.25;22.98;;;18.20;99.90;;;;;;5058130;28;20123;-71
2023/09/11 05:24:15;;;;;;;33.05;24.88;;;18.20;99.90;;;;;;5060128;28;20580;-71
2023/09/11 05:26:40;;;;;;;31.55;23.35;;;18.10;99.90;;;;;;5062688;28;20047;-71
2023/09/11 05:29:06;;;;;;;33.25;24.05;;;18.20;99.90;;;;;;5057460;28;20045;-71
2023/09/11 05:31:32;;;;;;;34.75;25.88;;;18.10;99.90;;;;;;5063492;28;20436;-71
2023/09/11 05:33:57;;;;;;;36.20;23.92;;;18.10;99.90;;;;;;5058737;28;20979;-72
2023/09/11 05:36:23;;;;;;;39.40;25.88;;;18.20;99.90;;;;;;5059937;28;20033;-72
2023/09/11 05:38:49;;;;;;;36.92;25.20;;;18.20;99.90;;;;;;5041917;28;20048;-71
2023/09/11 05:41:15;;;;;;;31.98;24.92;;;18.20;99.90;;;;;;5056620;28;20058;-71
2023/09/11 05:43:41;;;;;;;39.78;24.55;;;18.20;99.90;;;;;;5042486;28;20037;-71
2023/09/11 05:46:07;;;;;;;31.20;25.73;;;18.20;99.90;;;;;;5062706;28;20398;-71
2023/09/11 05:48:33;;;;;;;38.33;24.38;;;18.20;99.90;;;;;;5065402;28;20059;-71
2023/09/11 05:50:59;;;;;;;29.90;24.55;;;18.30;99.90;;;;;;5059748;28;20989;-71
2023/09/11 05:53:25;;;;;;;31.65;25.35;;;18.30;99.90;;;;;;5064223;28;20062;-71
2023/09/11 05:55:50;;;;;;;33.47;24.98;;;18.30;99.90;;;;;;5060258;28;20131;-71
2023/09/11 05:58:16;;;;;;;31.17;23.88;;;18.30;99.90;;;;;;5058930;28;20037;-71
2023/09/11 06:00:42;;;;;;;36.55;24.70;;;18.40;99.90;;;;;;5062805;28;20044;-71
2023/09/11 06:03:08;;;;;;;32.38;25.27;;;18.40;99.90;;;;;;5054947;28;20036;-71
2023/09/11 06:05:39;;;;;;;37.53;25.00;;;18.40;99.90;;;;;;5064077;28;20040;-70
2023/09/11 06:08:05;;;;;;;34.77;24.27;;;18.50;99.90;;;;;;5056833;28;20068;-71
2023/09/11 06:10:32;;;;;;;40.72;24.35;;;18.50;99.90;;;;;;5040898;28;20573;-71
2023/09/11 06:12:58;;;;;;;35.63;25.60;;;18.60;99.90;;;;;;5055822;28;20059;-71
2023/09/11 06:15:25;;;;;;;43.65;25.45;;;18.60;99.90;;;;;;5059317;28;20038;-72
2023/09/11 06:17:50;;;;;;;35.60;25.52;;;18.70;99.90;;;;;;5065483;28;20040;-71
2023/09/11 06:20:18;;;;;;;33.50;24.92;;;18.70;99.90;;;;;;5062245;28;20504;-72
2023/09/11 06:22:44;;;;;;;35.95;24.02;;;18.80;99.90;;;;;;5059810;28;20506;-71
2023/09/11 06:25:10;;;;;;;33.13;22.83;;;18.80;99.90;;;;;;5047426;28;20037;-71
2023/09/11 06:27:36;;;;;;;34.03;24.65;;;18.90;99.90;;;;;;5044039;28;20033;-71
2023/09/11 06:30:05;;;;;;;37.85;22.60;;;18.90;99.90;;;;;;5046830;28;20134;-71
2023/09/11 06:32:32;;;;;;;35.47;21.08;;;19.00;99.90;;;;;;5049409;28;20057;-72
2023/09/11 06:34:59;;;;;;;35.20;21.02;;;19.10;99.90;;;;;;5049129;28;20128;-72
2023/09/11 06:37:25;;;;;;;30.15;19.45;;;19.20;99.90;;;;;;5050331;28;20029;-72
2023/09/11 06:39:50;;;;;;;33.47;19.40;;;19.30;99.90;;;;;;5058377;28;20044;-72
2023/09/11 06:42:20;;;;;;;33.10;20.73;;;19.40;99.90;;;;;;5052576;28;20454;-74
2023/09/11 06:44:46;;;;;;;32.40;20.95;;;19.40;99.90;;;;;;5054928;28;20043;-71
2023/09/11 06:47:12;;;;;;;33.35;19.75;;;19.50;99.90;;;;;;5054534;28;20041;-71
2023/09/11 06:49:38;;;;;;;34.78;20.02;;;19.60;99.90;;;;;;5050245;28;20036;-71
2023/09/11 06:52:04;;;;;;;36.75;19.58;;;19.70;99.90;;;;;;5050171;28;21177;-71
2023/09/11 06:54:29;;;;;;;31.75;18.83;;;19.70;99.90;;;;;;5051924;28;20037;-71
2023/09/11 06:56:55;;;;;;;36.17;20.48;;;19.80;99.90;;;;;;5055093;28;20040;-72
2023/09/11 06:59:21;;;;;;;33.75;19.10;;;19.90;99.90;;;;;;5059558;28;20124;-71
2023/09/11 07:01:46;;;;;;;26.13;18.90;;;20.00;99.90;;;;;;5055977;28;21301;-71
2023/09/11 07:04:12;;;;;;;28.08;19.25;;;20.10;99.90;;;;;;5053923;28;20037;-71
2023/09/11 07:06:38;;;;;;;36.78;19.65;;;20.10;99.90;;;;;;5030954;28;20048;-71
2023/09/11 07:09:06;;;;;;;31.20;18.92;;;20.30;99.90;;;;;;5024665;28;20094;-71
2023/09/11 07:11:31;;;;;;;30.10;20.20;;;20.30;99.90;;;;;;5038396;28;20081;-70
2023/09/11 07:13:57;;;;;;;28.20;18.45;;;20.30;99.90;;;;;;5045911;28;20091;-71
2023/09/11 07:16:23;;;;;;;33.97;19.45;;;20.40;99.90;;;;;;5045767;28;20090;-71
2023/09/11 07:18:49;;;;;;;30.33;19.73;;;20.50;99.90;;;;;;5044624;28;20029;-71
2023/09/11 07:21:15;;;;;;;35.30;19.58;;;20.70;99.90;;;;;;5043931;28;20167;-71
2023/09/11 07:23:40;;;;;;;29.15;18.10;;;20.80;99.90;;;;;;5044336;28;20156;-71
2023/09/11 07:26:06;;;;;;;30.73;18.77;;;20.90;99.90;;;;;;5049819;28;20131;-71
2023/09/11 07:28:33;;;;;;;30.48;17.88;;;21.10;99.90;;;;;;5045459;28;20108;-71
2023/09/11 07:30:59;;;;;;;28.17;18.23;;;21.20;99.90;;;;;;5044678;28;20072;-71
2023/09/11 07:33:25;;;;;;;28.83;18.88;;;21.40;99.90;;;;;;5027307;28;20052;-71
2023/09/11 07:35:51;;;;;;;32.38;18.45;;;21.60;99.90;;;;;;5041282;28;20428;-71
2023/09/11 07:38:16;;;;;;;26.65;17.35;;;21.70;99.90;;;;;;5045164;28;20040;-71
2023/09/11 07:40:43;;;;;;;26.80;19.65;;;21.90;99.90;;;;;;5044738;28;20140;-71
2023/09/11 07:43:09;;;;;;;28.80;17.77;;;22.10;99.90;;;;;;5041868;28;20052;-71
2023/09/11 07:45:34;;;;;;;28.98;17.52;;;22.30;99.90;;;;;;5046321;28;20037;-71
2023/09/11 07:48:00;;;;;;;29.25;18.50;;;22.50;99.90;;;;;;5043218;28;20610;-72
2023/09/11 07:50:26;;;;;;;25.27;16.40;;;22.60;99.90;;;;;;5046611;28;21304;-72
2023/09/11 07:52:52;;;;;;;25.77;18.75;;;22.80;99.90;;;;;;5044936;28;20205;-72
2023/09/11 07:55:18;;;;;;;30.83;18.45;;;22.90;99.90;;;;;;5045650;28;21704;-71
2023/09/11 07:57:43;;;;;;;29.35;18.25;;;23.00;99.90;;;;;;5049377;28;20060;-72
2023/09/11 08:00:10;;;;;;;24.42;17.38;;;23.20;99.90;;;;;;5052112;28;20514;-72
2023/09/11 08:02:36;;;;;;;31.08;16.63;;;23.30;99.90;;;;;;5033154;28;20071;-71
2023/09/11 08:05:01;;;;;;;28.10;17.27;;;23.40;99.90;;;;;;5052551;28;20068;-72
2023/09/11 08:07:27;;;;;;;24.42;15.90;;;23.60;99.90;;;;;;5050070;28;20035;-72
2023/09/11 08:09:53;;;;;;;29.42;15.73;;;23.80;99.90;;;;;;5052287;28;20171;-72
2023/09/11 08:12:19;;;;;;;26.70;15.77;;;24.00;99.90;;;;;;5049939;28;20044;-72
2023/09/11 08:14:45;;;;;;;26.75;15.70;;;24.10;99.90;;;;;;5034249;28;20049;-71
2023/09/11 08:17:11;;;;;;;21.10;14.95;;;24.30;99.90;;;;;;5050352;28;20036;-72
2023/09/11 08:19:37;;;;;;;22.13;14.13;;;24.40;99.90;;;;;;5050727;28;20033;-71
2023/09/11 08:22:03;;;;;;;24.00;14.15;;;24.60;99.90;;;;;;5050763;28;20099;-72
2023/09/11 08:24:29;;;;;;;19.48;13.85;;;24.80;99.90;;;;;;5049167;28;20037;-72
2023/09/11 08:26:55;;;;;;;20.75;13.63;;;24.90;99.90;;;;;;5047774;28;20051;-72
2023/09/11 08:29:21;;;;;;;22.98;13.77;;;25.00;99.90;;;;;;5054780;28;20075;-72
2023/09/11 08:31:47;;;;;;;32.28;13.70;;;25.20;99.90;;;;;;5045715;28;20076;-71
2023/09/11 08:34:13;;;;;;;22.92;12.93;;;25.30;99.90;;;;;;5045061;28;20029;-72
2023/09/11 08:36:39;;;;;;;26.55;13.52;;;25.40;99.90;;;;;;5054375;28;20044;-72
2023/09/11 08:39:05;;;;;;;20.58;13.15;;;25.40;99.90;;;;;;5048283;28;20071;-71
2023/09/11 08:41:32;;;;;;;24.80;13.70;;;25.40;99.90;;;;;;5052538;28;20529;-71
2023/09/11 08:43:58;;;;;;;22.58;13.25;;;25.50;99.90;;;;;;5051316;28;20056;-72
2023/09/11 08:46:26;;;;;;;21.65;13.15;;;25.60;99.90;;;;;;5052843;28;20028;-72
2023/09/11 08:48:59;;;;;;;18.98;12.10;;;25.70;99.90;;;;;;5055485;28;20055;-72
2023/09/11 08:51:33;;;;;;;19.20;11.93;;;25.80;99.90;;;;;;5058235;28;20497;-71
2023/09/11 08:54:03;;;;;;;18.55;12.55;;;25.90;99.90;;;;;;5049961;28;20049;-72
2023/09/11 08:56:30;;;;;;;22.80;11.32;;;26.00;99.90;;;;;;5052774;28;20064;-72
2023/09/11 08:58:57;;;;;;;18.98;10.85;;;26.10;99.90;;;;;;5052331;28;20040;-71
2023/09/11 09:01:24;;;;;;;18.17;10.43;;;26.20;99.90;;;;;;5045756;28;20187;-71
2023/09/11 09:03:51;;;;;;;20.02;11.15;;;26.30;99.90;;;;;;5031034;28;20049;-74
2023/09/11 09:06:18;;;;;;;17.50;10.40;;;26.40;99.90;;;;;;5055840;28;20029;-75
2023/09/11 09:08:45;;;;;;;17.40;10.80;;;26.50;99.90;;;;;;5055809;28;20044;-75
2023/09/11 09:11:12;;;;;;;18.58;11.15;;;26.60;99.90;;;;;;5055178;28;20060;-74
2023/09/11 09:13:38;;;;;;;24.23;11.93;;;26.70;99.90;;;;;;5056499;28;20060;-74
2023/09/11 09:16:04;;;;;;;27.75;13.35;;;26.70;99.90;;;;;;5036938;28;20374;-73
2023/09/11 09:18:30;;;;;;;21.50;11.40;;;26.80;99.90;;;;;;5057081;28;20161;-72
2023/09/11 09:20:56;;;;;;;17.63;9.57;;;26.90;99.90;;;;;;5054620;28;20058;-72
2023/09/11 09:23:35;;;;;;;15.95;9.38;;;27.00;99.90;;;;;;5062021;28;20056;-72
2023/09/11 09:26:09;;;;;;;21.65;9.73;;;27.10;99.90;;;;;;5076736;28;20017;-73
2023/09/11 09:28:51;;;;;;;18.08;9.25;;;27.20;99.90;;;;;;5063339;28;20067;-72
2023/09/11 09:31:24;;;;;;;21.58;9.45;;;27.20;99.90;;;;;;5063013;28;20060;-73
2023/09/11 09:33:55;;;;;;;22.05;8.82;;;27.30;99.90;;;;;;5049476;28;20040;-73
2023/09/11 09:36:22;;;;;;;16.83;8.65;;;27.40;99.90;;;;;;5031946;28;20082;-74
2023/09/11 09:38:48;;;;;;;15.38;8.70;;;27.50;99.90;;;;;;5051713;28;20036;-73
2023/09/11 09:41:15;;;;;;;14.70;8.90;;;27.60;99.90;;;;;;5052204;28;20509;-74
2023/09/11 09:43:52;;;;;;;16.58;8.40;;;27.70;99.90;;;;;;5056048;28;20056;-74
2023/09/11 09:46:22;;;;;;;20.73;10.38;;;27.80;99.90;;;;;;5052995;28;20033;-74
2023/09/11 09:48:48;;;;;;;19.77;9.13;;;27.90;99.90;;;;;;5053729;28;20044;-74
2023/09/11 09:51:15;;;;;;;18.88;9.52;;;28.00;99.90;;;;;;5052786;28;20044;-73
2023/09/11 09:53:46;;;;;;;20.85;9.77;;;28.00;99.90;;;;;;5053362;28;20115;-73
2023/09/11 09:56:13;;;;;;;20.13;8.83;;;28.20;99.90;;;;;;5054933;28;20111;-72
2023/09/11 09:58:44;;;;;;;15.10;9.15;;;28.30;99.90;;;;;;5053486;28;20037;-71
2023/09/11 10:01:20;;;;;;;14.18;8.00;;;28.40;99.90;;;;;;5051591;28;20375;-70
2023/09/11 10:03:51;;;;;;;15.43;8.75;;;28.50;99.90;;;;;;5052607;28;20094;-69
2023/09/11 10:06:18;;;;;;;18.35;8.30;;;28.60;99.90;;;;;;5050294;28;20735;-69
2023/09/11 10:08:45;;;;;;;16.40;8.57;;;28.70;99.90;;;;;;5051707;28;20052;-71
2023/09/11 10:11:31;;;;;;;19.15;7.55;;;28.70;99.90;;;;;;5052010;28;20036;-69
2023/09/11 10:13:58;;;;;;;18.83;7.65;;;28.80;99.90;;;;;;5050930;28;20414;-70
2023/09/11 10:16:25;;;;;;;15.43;7.40;;;28.70;99.90;;;;;;5053147;28;20044;-70
2023/09/11 10:18:53;;;;;;;21.65;7.35;;;28.70;99.90;;;;;;5055277;28;20044;-70
2023/09/11 10:21:19;;;;;;;14.57;7.15;;;28.80;99.90;;;;;;5053881;28;20490;-69
2023/09/11 10:23:46;;;;;;;17.17;7.50;;;28.80;99.90;;;;;;5051976;28;20114;-69
2023/09/11 10:26:22;;;;;;;12.45;7.95;;;28.90;99.90;;;;;;5052465;28;20056;-70
2023/09/11 10:28:50;;;;;;;15.45;7.50;;;29.00;99.90;;;;;;5049482;28;20064;-68
2023/09/11 10:31:31;;;;;;;14.90;7.40;;;29.20;99.90;;;;;;5050135;28;20060;-71
2023/09/11 10:34:00;;;;;;;14.32;8.10;;;29.10;99.90;;;;;;5027347;28;20048;-71
2023/09/11 10:36:30;;;;;;;15.43;8.15;;;29.10;99.90;;;;;;5050128;28;20041;-70
2023/09/11 10:38:59;;;;;;;17.20;9.00;;;28.90;98.90;;;;;;5030154;28;20112;-69
2023/09/11 10:41:26;;;;;;;22.35;8.95;;;28.80;99.80;;;;;;5054836;28;20119;-70
2023/09/11 10:43:52;;;;;;;15.77;8.07;;;28.70;99.90;;;;;;5047151;28;20154;-69
2023/09/11 10:46:21;;;;;;;14.95;8.70;;;28.90;99.90;;;;;;5050562;28;20063;-70
2023/09/11 10:48:47;;;;;;;23.73;9.00;;;29.00;99.90;;;;;;5043834;28;20045;-69
2023/09/11 10:51:14;;;;;;;18.20;9.75;;;29.00;99.90;;;;;;5044123;28;20041;-70
2023/09/11 10:53:40;;;;;;;18.00;9.40;;;29.00;99.90;;;;;;5046811;28;20040;-70
2023/09/11 10:56:07;;;;;;;17.80;9.73;;;29.10;99.90;;;;;;5045416;28;20447;-71
2023/09/11 10:58:33;;;;;;;17.58;10.55;;;29.20;99.90;;;;;;5043401;28;20044;-69
2023/09/11 11:01:01;;;;;;;17.52;10.85;;;29.30;99.90;;;;;;5028219;28;20040;-70
2023/09/11 11:03:30;;;;;;;20.67;11.35;;;29.20;99.90;;;;;;5059401;28;20041;-71
2023/09/11 11:05:58;;;;;;;19.00;11.18;;;29.20;99.90;;;;;;5029693;28;20049;-71
2023/09/11 11:08:24;;;;;;;18.38;10.25;;;29.20;99.90;;;;;;5046745;28;20036;-71
2023/09/11 11:10:56;;;;;;;19.38;10.35;;;29.30;99.90;;;;;;5044458;28;20037;-70
2023/09/11 11:13:23;;;;;;;15.98;9.82;;;29.40;99.90;;;;;;5044304;28;20060;-71
2023/09/11 11:15:48;;;;;;;22.35;10.55;;;29.50;99.90;;;;;;5048099;28;20076;-70
2023/09/11 11:18:25;;;;;;;16.60;10.70;;;29.50;99.90;;;;;;5046041;28;20454;-70
2023/09/11 11:21:00;;;;;;;15.82;9.60;;;29.50;99.90;;;;;;5048109;28;20098;-71
2023/09/11 11:23:30;;;;;;;14.73;9.10;;;29.40;99.90;;;;;;5040672;28;20049;-70
2023/09/11 11:26:06;;;;;;;21.10;9.65;;;29.60;99.90;;;;;;5048603;28;20033;-69
2023/09/11 11:28:43;;;;;;;12.82;8.38;;;29.70;99.90;;;;;;5047254;28;20032;-71
2023/09/11 11:31:12;;;;;;;19.88;8.68;;;29.80;99.80;;;;;;5028155;28;20053;-71
2023/09/11 11:33:40;;;;;;;17.63;8.48;;;29.80;99.20;;;;;;5054383;28;20116;-70
2023/09/11 11:36:07;;;;;;;15.75;8.82;;;29.80;98.90;;;;;;5060896;28;20555;-71
2023/09/11 11:38:34;;;;;;;14.18;8.68;;;29.70;98.80;;;;;;5045070;28;20462;-70
2023/09/11 11:41:02;;;;;;;11.20;8.02;;;29.70;98.30;;;;;;5049854;28;20037;-70
2023/09/11 11:43:32;;;;;;;18.45;8.77;;;29.70;98.70;;;;;;5047998;28;20442;-70
2023/09/11 11:45:57;;;;;;;13.60;9.10;;;29.70;98.30;;;;;;5029120;28;20048;-70
2023/09/11 11:48:26;;;;;;;16.20;9.27;;;29.70;98.10;;;;;;5044939;28;20037;-71
2023/09/11 11:50:52;;;;;;;15.25;9.60;;;29.70;98.60;;;;;;5044661;28;20053;-70
2023/09/11 11:53:19;;;;;;;12.63;9.05;;;29.70;98.70;;;;;;5043031;28;20044;-73
2023/09/11 11:55:45;;;;;;;18.48;9.20;;;29.70;98.60;;;;;;5044537;28;20094;-72
2023/09/11 11:58:13;;;;;;;13.05;9.05;;;29.70;98.50;;;;;;5046309;28;20481;-69
2023/09/11 12:01:00;;;;;;;17.55;8.98;;;29.80;98.80;;;;;;5045586;28;20696;-70
2023/09/11 12:03:28;;;;;;;13.18;9.43;;;29.80;99.10;;;;;;5049547;28;20040;-70
2023/09/11 12:05:54;;;;;;;20.15;9.90;;;29.90;98.90;;;;;;5055788;28;20032;-71
2023/09/11 12:08:21;;;;;;;14.80;9.90;;;29.80;98.80;;;;;;5051433;28;20813;-70
2023/09/11 12:10:50;;;;;;;15.65;8.80;;;29.90;99.00;;;;;;5055107;28;20106;-72
2023/09/11 12:13:22;;;;;;;15.57;9.00;;;30.00;99.10;;;;;;5054490;28;20041;-70
2023/09/11 12:16:06;;;;;;;17.00;9.63;;;30.00;98.00;;;;;;5033805;28;20052;-70
2023/09/11 12:18:36;;;;;;;12.90;9.23;;;29.90;97.60;;;;;;5046045;28;20072;-71
2023/09/11 12:21:06;;;;;;;15.60;9.60;;;29.80;98.10;;;;;;5045289;28;20128;-71
2023/09/11 12:23:33;;;;;;;16.73;9.63;;;29.90;98.50;;;;;;5050666;28;20051;-70
2023/09/11 12:26:01;;;;;;;9.88;8.43;;;29.90;98.20;;;;;;5047043;28;20389;-71
2023/09/11 12:28:27;;;;;;;22.25;9.70;;;29.90;98.10;;;;;;5045790;28;20044;-71